createdAt,value
2023-04-23T00:01:25.801Z,1016.31
2023-04-23T00:03:55.513Z,1016.35
2023-04-23T00:06:22.927Z,1016.43
2023-04-23T00:08:53.082Z,1016.47
2023-04-23T00:11:21.725Z,1016.36
2023-04-23T00:13:48.818Z,1016.52
2023-04-23T00:16:16.156Z,1016.41
2023-04-23T00:18:42.920Z,1016.47
2023-04-23T00:21:09.680Z,1016.40
2023-04-23T00:23:36.539Z,1016.33
2023-04-23T00:26:03.397Z,1016.27
2023-04-23T00:28:31.835Z,1016.16
2023-04-23T00:30:58.590Z,1016.18
2023-04-23T00:33:25.509Z,1016.12
2023-04-23T00:35:52.264Z,1016.19
2023-04-23T00:38:19.018Z,1016.14
2023-04-23T00:40:46.035Z,1016.22
2023-04-23T00:43:12.766Z,1016.33
2023-04-23T00:45:41.339Z,1016.31
2023-04-23T00:48:08.864Z,1016.28
2023-04-23T00:50:35.694Z,1016.30
2023-04-23T00:53:02.562Z,1016.26
2023-04-23T00:55:29.572Z,1016.45
2023-04-23T00:57:56.455Z,1016.42
2023-04-23T01:00:23.445Z,1016.47
2023-04-23T01:02:51.772Z,1016.45
2023-04-23T01:05:21.148Z,1016.37
2023-04-23T01:07:48.324Z,1016.45
2023-04-23T01:10:15.300Z,1016.45
2023-04-23T01:12:42.135Z,1016.50
2023-04-23T01:15:10.102Z,1016.44
2023-04-23T01:17:36.928Z,1016.38
2023-04-23T01:20:06.320Z,1016.46
2023-04-23T01:22:35.487Z,1016.42
2023-04-23T01:25:03.210Z,1016.40
2023-04-23T01:27:30.072Z,1016.43
2023-04-23T01:29:57.687Z,1016.51
2023-04-23T01:32:25.252Z,1016.47
2023-04-23T01:34:52.486Z,1016.50
2023-04-23T01:37:19.923Z,1016.50
2023-04-23T01:39:48.064Z,1016.51
2023-04-23T01:42:15.012Z,1016.37
2023-04-23T01:44:42.199Z,1016.30
2023-04-23T01:47:09.193Z,1016.31
2023-04-23T01:49:36.230Z,1016.33
2023-04-23T01:52:03.053Z,1016.39
2023-04-23T01:54:29.890Z,1016.30
2023-04-23T01:56:58.450Z,1016.28
2023-04-23T01:59:25.211Z,1016.31
2023-04-23T02:01:51.945Z,1016.38
2023-04-23T02:04:18.983Z,1016.36
2023-04-23T02:06:48.269Z,1016.27
2023-04-23T02:09:15.284Z,1016.39
2023-04-23T02:11:42.357Z,1016.33
2023-04-23T02:14:10.976Z,1016.36
2023-04-23T02:16:37.900Z,1016.48
2023-04-23T02:19:04.801Z,1016.43
2023-04-23T02:21:31.771Z,1016.42
2023-04-23T02:23:58.635Z,1016.51
2023-04-23T02:26:25.443Z,1016.44
2023-04-23T02:28:52.219Z,1016.47
2023-04-23T02:31:20.587Z,1016.44
2023-04-23T02:33:47.456Z,1016.50
2023-04-23T02:36:14.251Z,1016.34
2023-04-23T02:38:41.028Z,1016.30
2023-04-23T02:41:07.836Z,1016.34
2023-04-23T02:43:34.592Z,1016.32
2023-04-23T02:46:01.430Z,1016.36
2023-04-23T02:48:29.601Z,1016.26
2023-04-23T02:50:56.357Z,1016.21
2023-04-23T02:53:23.110Z,1016.19
2023-04-23T02:55:49.937Z,1016.17
2023-04-23T02:58:16.698Z,1016.21
2023-04-23T03:00:43.526Z,1016.28
2023-04-23T03:03:12.361Z,1016.30
2023-04-23T03:05:40.904Z,1016.25
2023-04-23T03:08:07.837Z,1016.19
2023-04-23T03:10:34.622Z,1016.15
2023-04-23T03:13:01.507Z,1016.21
2023-04-23T03:15:28.449Z,1016.23
2023-04-23T03:17:55.291Z,1016.23
2023-04-23T03:20:22.280Z,1016.27
2023-04-23T03:22:50.633Z,1016.32
2023-04-23T03:25:17.414Z,1016.23
2023-04-23T03:27:44.242Z,1016.26
2023-04-23T03:30:11.668Z,1016.38
2023-04-23T03:32:38.911Z,1016.30
2023-04-23T03:35:06.316Z,1016.26
2023-04-23T03:37:33.154Z,1016.21
2023-04-23T03:40:01.472Z,1016.24
2023-04-23T03:42:28.371Z,1016.28
2023-04-23T03:44:55.201Z,1016.37
2023-04-23T03:47:21.950Z,1016.38
2023-04-23T03:49:48.719Z,1016.36
2023-04-23T03:52:15.444Z,1016.43
2023-04-23T03:54:42.327Z,1016.37
2023-04-23T03:57:10.824Z,1016.36
2023-04-23T03:59:37.844Z,1016.27
2023-04-23T04:02:04.882Z,1016.20
2023-04-23T04:04:32.242Z,1016.31
2023-04-23T04:06:59.945Z,1016.30
2023-04-23T04:09:27.103Z,1016.27
2023-04-23T04:11:54.028Z,1016.19
2023-04-23T04:14:22.518Z,1016.28
2023-04-23T04:16:49.726Z,1016.37
2023-04-23T04:19:16.546Z,1016.43
2023-04-23T04:21:43.377Z,1016.40
2023-04-23T04:24:10.103Z,1016.36
2023-04-23T04:26:36.890Z,1016.30
2023-04-23T04:29:03.696Z,1016.26
2023-04-23T04:31:32.091Z,1016.33
2023-04-23T04:33:58.869Z,1016.36
2023-04-23T04:36:25.668Z,1016.34
2023-04-23T04:38:52.646Z,1016.32
2023-04-23T04:41:19.544Z,1016.27
2023-04-23T04:43:46.403Z,1016.27
2023-04-23T04:46:13.126Z,1016.31
2023-04-23T04:48:41.318Z,1016.21
2023-04-23T04:51:08.193Z,1016.17
2023-04-23T04:53:35.000Z,1016.16
2023-04-23T04:56:02.367Z,1016.13
2023-04-23T04:58:29.180Z,1016.22
2023-04-23T05:00:56.211Z,1016.22
2023-04-23T05:03:23.212Z,1016.28
2023-04-23T05:05:51.438Z,1016.15
2023-04-23T05:08:18.503Z,1016.25
2023-04-23T05:10:45.238Z,1016.26
2023-04-23T05:13:12.008Z,1016.30
2023-04-23T05:15:38.865Z,1016.29
2023-04-23T05:18:05.892Z,1016.19
2023-04-23T05:20:32.866Z,1016.18
2023-04-23T05:23:03.704Z,1016.22
2023-04-23T05:25:30.628Z,1016.12
2023-04-23T05:27:57.510Z,1016.15
2023-04-23T05:30:24.328Z,1016.18
2023-04-23T05:32:51.231Z,1016.14
2023-04-23T05:35:18.084Z,1016.16
2023-04-23T05:37:45.494Z,1016.13
2023-04-23T05:40:13.804Z,1015.43
2023-04-23T05:42:40.633Z,1015.04
2023-04-23T05:45:09.189Z,1014.69
2023-04-23T05:47:36.439Z,1014.39
2023-04-23T05:50:03.415Z,1013.97
2023-04-23T05:52:30.313Z,1013.77
2023-04-23T05:54:57.535Z,1013.78
2023-04-23T05:57:25.873Z,1013.59
2023-04-23T05:59:52.609Z,1013.42
2023-04-23T06:02:20.107Z,1013.38
2023-04-23T06:04:48.896Z,1013.23
2023-04-23T06:07:15.935Z,1013.18
2023-04-23T06:09:42.749Z,1013.18
2023-04-23T06:12:11.182Z,1013.26
2023-04-23T06:14:39.622Z,1013.21
2023-04-23T06:17:06.563Z,1013.24
2023-04-23T06:19:33.457Z,1013.34
2023-04-23T06:22:00.341Z,1013.21
2023-04-23T06:24:27.255Z,1013.01
2023-04-23T06:26:54.032Z,1012.89
2023-04-23T06:29:20.804Z,1012.86
2023-04-23T06:31:49.097Z,1012.79
2023-04-23T06:34:15.910Z,1012.59
2023-04-23T06:36:42.786Z,1012.48
2023-04-23T06:39:09.593Z,1012.44
2023-04-23T06:41:36.475Z,1012.36
2023-04-23T06:44:03.293Z,1012.25
2023-04-23T06:46:30.303Z,1012.20
2023-04-23T06:48:58.599Z,1012.08
2023-04-23T06:51:26.116Z,1011.99
2023-04-23T06:53:52.896Z,1011.84
2023-04-23T06:56:20.140Z,1011.76
2023-04-23T06:58:46.976Z,1011.68
2023-04-23T07:01:13.923Z,1011.66
2023-04-23T07:03:41.482Z,1011.80
2023-04-23T07:06:11.426Z,1011.79
2023-04-23T07:08:38.189Z,1011.82
2023-04-23T07:11:05.167Z,1011.99
2023-04-23T07:13:31.984Z,1012.04
2023-04-23T07:15:58.791Z,1012.07
2023-04-23T07:18:25.533Z,1012.02
2023-04-23T07:20:52.306Z,1011.91
2023-04-23T07:23:20.547Z,1011.89
2023-04-23T07:25:47.360Z,1012.09
2023-04-23T07:28:14.231Z,1012.17
2023-04-23T07:30:41.040Z,1011.92
2023-04-23T07:33:07.824Z,1011.76
2023-04-23T07:35:34.615Z,1011.60
2023-04-23T07:38:01.352Z,1011.61
2023-04-23T07:40:29.484Z,1011.55
2023-04-23T07:42:56.358Z,1011.68
2023-04-23T07:45:23.108Z,1011.69
2023-04-23T07:47:50.526Z,1011.82
2023-04-23T07:50:17.356Z,1011.94
2023-04-23T07:52:44.141Z,1011.92
2023-04-23T07:55:10.986Z,1012.06
2023-04-23T07:57:39.164Z,1012.20
2023-04-23T08:00:07.232Z,1012.04
2023-04-23T08:02:34.148Z,1011.86
2023-04-23T08:05:01.101Z,1011.75
2023-04-23T08:07:27.899Z,1011.75
2023-04-23T08:09:54.635Z,1011.60
2023-04-23T08:12:21.522Z,1011.58
2023-04-23T08:14:49.727Z,1011.42
2023-04-23T08:17:16.558Z,1011.42
2023-04-23T08:19:43.549Z,1011.34
2023-04-23T08:22:10.512Z,1011.49
2023-04-23T08:24:37.314Z,1011.40
2023-04-23T08:27:04.362Z,1011.39
2023-04-23T08:29:31.171Z,1011.49
2023-04-23T08:31:59.456Z,1011.54
2023-04-23T08:34:26.305Z,1011.58
2023-04-23T08:36:53.051Z,1011.40
2023-04-23T08:39:19.812Z,1011.45
2023-04-23T08:41:54.004Z,1011.52
2023-04-23T08:44:22.405Z,1011.49
2023-04-23T08:46:49.824Z,1011.31
2023-04-23T08:49:18.764Z,1011.10
2023-04-23T08:51:49.525Z,1010.95
2023-04-23T08:54:21.530Z,1010.90
2023-04-23T08:56:49.725Z,1010.74
2023-04-23T08:59:18.003Z,1010.72
2023-04-23T09:01:45.085Z,1010.83
2023-04-23T09:04:13.644Z,1010.84
2023-04-23T09:06:41.863Z,1010.81
2023-04-23T09:09:09.579Z,1010.69
2023-04-23T09:11:37.400Z,1010.70
2023-04-23T09:14:04.685Z,1010.67
2023-04-23T09:16:31.656Z,1010.68
2023-04-23T09:18:59.114Z,1010.63
2023-04-23T09:21:26.123Z,1010.53
2023-04-23T09:23:54.341Z,1010.56
2023-04-23T09:26:22.121Z,1010.61
2023-04-23T09:28:50.255Z,1010.48
2023-04-23T09:31:20.678Z,1010.59
2023-04-23T09:33:51.574Z,1010.46
2023-04-23T09:36:21.430Z,1010.47
2023-04-23T09:38:48.793Z,1010.45
2023-04-23T09:41:24.373Z,1010.45
2023-04-23T09:43:53.684Z,1010.45
2023-04-23T09:46:33.185Z,1010.82
2023-04-23T09:49:01.391Z,1010.72
2023-04-23T09:51:29.736Z,1010.76
2023-04-23T09:53:56.755Z,1010.70
2023-04-23T09:56:25.033Z,1010.84
2023-04-23T09:58:51.909Z,1010.86
2023-04-23T10:01:18.708Z,1010.87
2023-04-23T10:03:45.674Z,1010.89
2023-04-23T10:06:21.702Z,1010.99
2023-04-23T10:09:00.941Z,1010.68
2023-04-23T10:11:29.702Z,1010.74
2023-04-23T10:13:56.715Z,1010.64
2023-04-23T10:16:28.529Z,1010.64
2023-04-23T10:19:04.597Z,1010.61
2023-04-23T10:21:46.364Z,1010.50
2023-04-23T10:24:20.322Z,1010.39
2023-04-23T10:26:49.936Z,1010.28
2023-04-23T10:29:19.333Z,1010.25
2023-04-23T10:31:47.223Z,1010.29
2023-04-23T10:34:15.690Z,1010.22
2023-04-23T10:36:42.601Z,1010.06
2023-04-23T10:39:09.946Z,1010.05
2023-04-23T10:41:39.497Z,1009.97
2023-04-23T10:44:12.380Z,1009.78
2023-04-23T10:46:39.471Z,1009.62
2023-04-23T10:49:08.584Z,1009.54
2023-04-23T10:52:17.159Z,1009.40
2023-04-23T10:54:29.172Z,1009.29
2023-04-23T10:56:59.090Z,1009.06
2023-04-23T10:59:27.849Z,1008.99
2023-04-23T11:01:56.493Z,1008.83
2023-04-23T11:04:24.571Z,1008.74
2023-04-23T11:06:54.467Z,1008.70
2023-04-23T11:09:39.326Z,1008.61
2023-04-23T11:12:32.119Z,1008.53
2023-04-23T11:15:10.689Z,1008.54
2023-04-23T11:17:59.455Z,1008.67
2023-04-23T11:20:26.357Z,1008.85
2023-04-23T11:22:53.215Z,1008.79
2023-04-23T11:25:21.533Z,1008.90
2023-04-23T11:27:52.420Z,1008.97
2023-04-23T11:30:22.719Z,1009.26
2023-04-23T11:32:52.226Z,1009.13
2023-04-23T11:35:21.181Z,1009.09
2023-04-23T11:37:48.985Z,1009.10
2023-04-23T11:40:17.210Z,1009.10
2023-04-23T11:42:45.392Z,1009.07
2023-04-23T11:45:20.361Z,1009.13
2023-04-23T11:47:48.833Z,1008.95
2023-04-23T11:50:19.523Z,1008.67
2023-04-23T11:52:46.965Z,1008.40
2023-04-23T11:55:13.965Z,1008.43
2023-04-23T11:57:44.585Z,1008.31
2023-04-23T12:00:14.526Z,1008.13
2023-04-23T12:02:52.350Z,1008.10
2023-04-23T12:05:20.874Z,1008.06
2023-04-23T12:07:49.399Z,1007.98
2023-04-23T12:10:18.267Z,1007.75
2023-04-23T12:12:48.824Z,1007.72
2023-04-23T12:15:15.864Z,1007.70
2023-04-23T12:17:43.268Z,1007.80
2023-04-23T12:20:17.800Z,1007.83
2023-04-23T12:22:46.913Z,1007.79
2023-04-23T12:25:13.849Z,1007.76
2023-04-23T12:27:41.657Z,1007.57
2023-04-23T12:30:09.366Z,1007.65
2023-04-23T12:32:37.358Z,1007.72
2023-04-23T12:35:04.574Z,1007.75
2023-04-23T12:37:36.555Z,1007.86
2023-04-23T12:40:04.101Z,1008.15
2023-04-23T12:42:30.838Z,1008.02
2023-04-23T12:45:05.624Z,1007.99
2023-04-23T12:47:32.421Z,1007.85
2023-04-23T12:49:59.252Z,1007.88
2023-04-23T12:52:25.992Z,1007.86
2023-04-23T12:54:54.224Z,1007.84
2023-04-23T12:57:21.202Z,1008.00
2023-04-23T12:59:48.059Z,1008.03
2023-04-23T13:02:15.075Z,1008.11
2023-04-23T13:04:41.964Z,1008.22
2023-04-23T13:07:08.780Z,1008.24
2023-04-23T13:09:35.531Z,1008.40
2023-04-23T13:12:03.998Z,1008.42
2023-04-23T13:14:30.790Z,1008.40
2023-04-23T13:16:57.511Z,1008.43
2023-04-23T13:19:24.459Z,1008.44
2023-04-23T13:21:51.191Z,1008.53
2023-04-23T13:24:18.024Z,1008.50
2023-04-23T13:26:44.840Z,1008.58
2023-04-23T13:29:12.975Z,1008.68
2023-04-23T13:31:39.759Z,1009.01
2023-04-23T13:34:06.510Z,1008.98
2023-04-23T13:36:33.362Z,1009.09
2023-04-23T13:39:00.210Z,1009.21
2023-04-23T13:41:26.979Z,1009.35
2023-04-23T13:43:53.792Z,1009.28
2023-04-23T13:46:22.011Z,1009.35
2023-04-23T13:48:48.840Z,1009.50
2023-04-23T13:51:33.284Z,1009.57
2023-04-23T13:54:01.931Z,1009.61
2023-04-23T13:56:30.490Z,1009.59
2023-04-23T13:59:11.554Z,1009.66
2023-04-23T14:01:45.818Z,1009.66
2023-04-23T14:04:13.615Z,1009.68
2023-04-23T14:06:40.423Z,1009.71
2023-04-23T14:09:07.275Z,1009.72
2023-04-23T14:11:34.284Z,1009.71
2023-04-23T14:14:01.235Z,1009.82
2023-04-23T14:16:28.035Z,1009.92
2023-04-23T14:18:56.319Z,1010.13
2023-04-23T14:21:23.084Z,1010.35
2023-04-23T14:23:55.043Z,1010.38
2023-04-23T14:26:34.361Z,1010.38
2023-04-23T14:29:19.501Z,1010.46
2023-04-23T14:31:46.401Z,1010.48
2023-04-23T14:34:14.638Z,1010.39
2023-04-23T14:36:41.413Z,1010.35
2023-04-23T14:39:08.215Z,1010.52
2023-04-23T14:41:35.060Z,1010.43
2023-04-23T14:44:02.090Z,1010.39
2023-04-23T14:46:28.979Z,1010.44
2023-04-23T14:48:55.801Z,1010.42
2023-04-23T14:51:24.159Z,1010.45
2023-04-23T14:53:51.357Z,1010.52
2023-04-23T14:56:18.248Z,1010.52
2023-04-23T14:58:45.118Z,1010.58
2023-04-23T15:01:11.941Z,1010.51
2023-04-23T15:03:38.960Z,1010.50
2023-04-23T15:06:06.869Z,1010.53
2023-04-23T15:08:35.028Z,1010.45
2023-04-23T15:11:02.031Z,1010.49
2023-04-23T15:13:43.394Z,1010.60
2023-04-23T15:16:26.284Z,1010.61
2023-04-23T15:18:59.487Z,1010.58
2023-04-23T15:21:26.518Z,1010.52
2023-04-23T15:23:56.459Z,1010.51
2023-04-23T15:26:23.706Z,1010.50
2023-04-23T15:28:50.706Z,1010.56
2023-04-23T15:31:17.591Z,1010.58
2023-04-23T15:33:44.457Z,1010.42
2023-04-23T15:36:11.215Z,1010.38
2023-04-23T15:38:37.986Z,1010.39
2023-04-23T15:41:06.317Z,1010.25
2023-04-23T15:43:33.424Z,1010.15
2023-04-23T15:46:00.236Z,1010.17
2023-04-23T15:48:27.260Z,1010.17
2023-04-23T15:50:54.164Z,1010.21
2023-04-23T15:53:21.183Z,1010.13
2023-04-23T15:55:47.909Z,1010.12
2023-04-23T15:58:16.058Z,1010.07
2023-04-23T16:00:42.851Z,1010.15
2023-04-23T16:03:09.839Z,1010.13
2023-04-23T16:05:36.685Z,1010.08
2023-04-23T16:08:03.688Z,1010.06
2023-04-23T16:10:30.425Z,1010.00
2023-04-23T16:12:57.657Z,1010.01
2023-04-23T16:15:25.952Z,1009.98
2023-04-23T16:17:52.795Z,1009.95
2023-04-23T16:20:19.761Z,1009.91
2023-04-23T16:22:46.502Z,1010.01
2023-04-23T16:25:13.294Z,1009.97
2023-04-23T16:27:40.304Z,1009.94
2023-04-23T16:30:08.365Z,1009.76
2023-04-23T16:32:36.659Z,1009.80
2023-04-23T16:35:03.991Z,1009.74
2023-04-23T16:37:30.760Z,1009.71
2023-04-23T16:39:57.472Z,1009.81
2023-04-23T16:42:24.269Z,1009.82
2023-04-23T16:44:50.986Z,1009.87
2023-04-23T16:47:17.876Z,1009.89
2023-04-23T16:49:46.138Z,1009.88
2023-04-23T16:52:13.006Z,1009.81
2023-04-23T16:54:39.742Z,1009.86
2023-04-23T16:57:06.601Z,1009.87
2023-04-23T16:59:33.599Z,1009.95
2023-04-23T17:02:00.520Z,1009.89
2023-04-23T17:04:27.544Z,1010.02
2023-04-23T17:06:55.893Z,1010.00
2023-04-23T17:09:22.783Z,1010.01
2023-04-23T17:11:49.568Z,1010.03
2023-04-23T17:14:18.732Z,1010.01
2023-04-23T17:16:45.556Z,1010.07
2023-04-23T17:19:12.336Z,1009.94
2023-04-23T17:21:39.120Z,1010.04
2023-04-23T17:24:07.478Z,1010.03
2023-04-23T17:26:34.231Z,1010.07
2023-04-23T17:29:00.994Z,1010.11
2023-04-23T17:31:27.771Z,1010.11
2023-04-23T17:33:54.577Z,1010.20
2023-04-23T17:36:21.371Z,1010.26
2023-04-23T17:38:48.104Z,1010.22
2023-04-23T17:41:16.499Z,1010.29
2023-04-23T17:43:43.425Z,1010.35
2023-04-23T17:46:10.270Z,1010.38
2023-04-23T17:48:37.031Z,1010.42
2023-04-23T17:51:03.985Z,1010.43
2023-04-23T17:53:30.880Z,1010.39
2023-04-23T17:55:57.727Z,1010.42
2023-04-23T17:58:25.851Z,1010.65
2023-04-23T18:00:52.735Z,1010.54
2023-04-23T18:03:19.974Z,1010.53
2023-04-23T18:05:47.063Z,1010.59
2023-04-23T18:08:13.951Z,1010.76
2023-04-23T18:10:40.848Z,1010.86
2023-04-23T18:13:07.717Z,1011.05
2023-04-23T18:15:35.927Z,1011.01
2023-04-23T18:18:02.917Z,1011.07
2023-04-23T18:20:29.703Z,1011.08
2023-04-23T18:22:56.468Z,1011.13
2023-04-23T18:25:23.398Z,1011.15
2023-04-23T18:27:50.289Z,1011.18
2023-04-23T18:30:17.055Z,1011.10
2023-04-23T18:32:48.513Z,1011.02
2023-04-23T18:35:15.614Z,1011.00
2023-04-23T18:40:30.314Z,1011.01
2023-04-23T18:41:42.865Z,1010.90
2023-04-23T18:42:57.027Z,1010.98
2023-04-23T18:45:23.892Z,1011.03
2023-04-23T18:47:57.353Z,1011.17
2023-04-23T18:50:35.992Z,1011.11
2023-04-23T18:53:02.765Z,1011.27
2023-04-23T18:55:29.585Z,1011.15
2023-04-23T18:57:56.283Z,1011.26
2023-04-23T19:00:23.091Z,1011.25
2023-04-23T19:02:49.881Z,1011.17
2023-04-23T19:05:18.479Z,1011.13
2023-04-23T19:07:45.318Z,1011.31
2023-04-23T19:10:12.970Z,1011.20
2023-04-23T19:12:39.723Z,1011.24
2023-04-23T19:15:07.659Z,1011.33
2023-04-23T19:17:34.614Z,1011.24
2023-04-23T19:20:01.442Z,1011.36
2023-04-23T19:22:29.619Z,1011.52
2023-04-23T19:24:56.341Z,1011.45
2023-04-23T19:27:23.168Z,1011.37
2023-04-23T19:29:49.878Z,1011.22
2023-04-23T19:32:16.634Z,1011.35
2023-04-23T19:34:43.431Z,1011.55
2023-04-23T19:37:10.144Z,1011.44
2023-04-23T19:39:38.335Z,1011.44
2023-04-23T19:42:05.135Z,1011.30
2023-04-23T19:44:31.967Z,1011.52
2023-04-23T19:46:58.762Z,1011.53
2023-04-23T19:49:25.553Z,1011.49
2023-04-23T19:51:53.271Z,1011.49
2023-04-23T19:54:20.727Z,1011.40
2023-04-23T19:56:49.849Z,1011.41
2023-04-23T19:59:16.742Z,1011.40
2023-04-23T20:01:43.591Z,1011.45
2023-04-23T20:04:10.605Z,1011.55
2023-04-23T20:06:37.439Z,1011.64
2023-04-23T20:09:04.194Z,1011.59
2023-04-23T20:11:31.064Z,1011.54
2023-04-23T20:13:59.214Z,1011.60
2023-04-23T20:16:26.091Z,1011.60
2023-04-23T20:18:52.834Z,1011.59
2023-04-23T20:21:19.620Z,1011.49
2023-04-23T20:23:46.458Z,1011.35
2023-04-23T20:26:13.321Z,1011.62
2023-04-23T20:28:40.180Z,1011.54
2023-04-23T20:31:08.489Z,1011.58
2023-04-23T20:33:35.311Z,1011.54
2023-04-23T20:36:02.122Z,1011.35
2023-04-23T20:38:28.929Z,1011.36
2023-04-23T20:40:55.798Z,1011.42
2023-04-23T20:43:22.554Z,1011.54
2023-04-23T20:45:49.298Z,1011.72
2023-04-23T20:48:17.498Z,1011.66
2023-04-23T20:50:44.275Z,1011.65
2023-04-23T20:53:11.055Z,1011.55
2023-04-23T20:55:37.960Z,1011.50
2023-04-23T20:58:04.825Z,1011.57
2023-04-23T21:00:31.608Z,1011.57
2023-04-23T21:02:58.632Z,1011.52
2023-04-23T21:05:26.844Z,1011.54
2023-04-23T21:07:54.058Z,1011.58
2023-04-23T21:10:21.420Z,1011.53
2023-04-23T21:12:48.327Z,1011.49
2023-04-23T21:15:16.105Z,1011.42
2023-04-23T21:17:43.272Z,1011.46
2023-04-23T21:20:10.508Z,1011.42
2023-04-23T21:22:38.647Z,1011.47
2023-04-23T21:25:06.280Z,1011.51
2023-04-23T21:27:33.632Z,1011.47
2023-04-23T21:30:04.838Z,1011.54
2023-04-23T21:32:31.587Z,1011.46
2023-04-23T21:34:58.947Z,1011.49
2023-04-23T21:37:25.779Z,1011.44
2023-04-23T21:39:53.921Z,1011.44
2023-04-23T21:42:20.710Z,1011.40
2023-04-23T21:44:47.466Z,1011.37
2023-04-23T21:47:14.230Z,1011.51
2023-04-23T21:49:41.401Z,1011.30
2023-04-23T21:52:08.266Z,1011.30
2023-04-23T21:54:35.024Z,1011.15
2023-04-23T21:57:03.580Z,1011.08
2023-04-23T21:59:30.486Z,1011.11
2023-04-23T22:01:57.346Z,1011.02
2023-04-23T22:04:24.333Z,1010.94
2023-04-23T22:06:51.190Z,1010.95
2023-04-23T22:09:17.967Z,1010.91
2023-04-23T22:12:00.794Z,1010.89
2023-04-23T22:14:29.885Z,1011.00
2023-04-23T22:16:56.830Z,1010.95
2023-04-23T22:19:23.904Z,1011.03
2023-04-23T22:21:50.776Z,1010.93
2023-04-23T22:24:17.614Z,1010.86
2023-04-23T22:26:44.482Z,1010.82
2023-04-23T22:29:11.407Z,1010.70
2023-04-23T22:31:39.708Z,1010.72
2023-04-23T22:34:06.546Z,1010.75
2023-04-23T22:36:33.310Z,1010.62
2023-04-23T22:39:00.272Z,1010.64
2023-04-23T22:41:27.064Z,1010.66
2023-04-23T22:43:53.890Z,1010.62
2023-04-23T22:46:20.742Z,1010.64
2023-04-23T22:48:48.959Z,1010.72
2023-04-23T22:51:15.807Z,1010.57
2023-04-23T22:53:42.536Z,1010.56
2023-04-23T22:56:09.375Z,1010.63
2023-04-23T22:58:36.205Z,1010.57
2023-04-23T23:01:03.123Z,1010.48
2023-04-23T23:03:30.013Z,1010.48
2023-04-23T23:05:58.403Z,1010.50
2023-04-23T23:08:25.165Z,1010.55
2023-04-23T23:10:51.975Z,1010.52
2023-04-23T23:13:18.785Z,1010.56
2023-04-23T23:15:45.763Z,1010.54
2023-04-23T23:18:12.608Z,1010.47
2023-04-23T23:20:39.423Z,1010.49
2023-04-23T23:23:07.705Z,1010.60
2023-04-23T23:25:34.546Z,1010.54
2023-04-23T23:28:01.387Z,1010.58
2023-04-23T23:30:28.163Z,1010.58
2023-04-23T23:32:55.023Z,1010.49
2023-04-23T23:35:21.789Z,1010.51
2023-04-23T23:37:48.685Z,1010.61
2023-04-23T23:40:16.865Z,1010.51
2023-04-23T23:42:43.566Z,1010.55
2023-04-23T23:45:11.107Z,1010.49
2023-04-23T23:47:38.007Z,1010.52
2023-04-23T23:50:06.028Z,1010.45
2023-04-23T23:52:32.913Z,1010.47
2023-04-23T23:54:59.663Z,1010.37
2023-04-23T23:57:27.823Z,1010.20
2023-04-23T23:59:54.634Z,1010.22
